createdAt,value
2022-12-11T00:01:16.765Z,-3.04
2022-12-11T00:04:19.093Z,-3.06
2022-12-11T00:07:20.529Z,-3.08
2022-12-11T00:10:21.946Z,-3.06
2022-12-11T00:13:23.632Z,-2.97
2022-12-11T00:16:26.913Z,-2.99
2022-12-11T00:19:28.729Z,-2.98
2022-12-11T00:22:30.395Z,-2.94
2022-12-11T00:25:31.832Z,-2.98
2022-12-11T00:28:33.212Z,-3.00
2022-12-11T00:31:34.765Z,-3.00
2022-12-11T00:34:36.175Z,-3.03
2022-12-11T00:37:37.548Z,-3.10
2022-12-11T00:40:38.916Z,-3.04
2022-12-11T00:43:40.286Z,-2.98
2022-12-11T00:46:41.661Z,-2.96
2022-12-11T00:49:48.151Z,-2.96
2022-12-11T00:52:51.108Z,-2.96
2022-12-11T00:55:52.497Z,-2.94
2022-12-11T00:58:53.881Z,-2.92
2022-12-11T01:01:55.226Z,-2.89
2022-12-11T01:04:56.609Z,-2.87
2022-12-11T01:07:58.006Z,-2.89
2022-12-11T01:11:06.203Z,-2.89
2022-12-11T01:14:07.714Z,-2.89
2022-12-11T01:17:09.050Z,-2.85
2022-12-11T01:20:10.567Z,-2.84
2022-12-11T01:23:12.969Z,-2.84
2022-12-11T01:26:14.627Z,-2.83
2022-12-11T01:29:16.030Z,-2.83
2022-12-11T01:32:17.368Z,-2.82
2022-12-11T01:35:18.803Z,-2.80
2022-12-11T01:38:20.187Z,-2.78
2022-12-11T01:41:21.593Z,-2.83
2022-12-11T01:44:22.932Z,-2.88
2022-12-11T01:47:24.308Z,-2.89
2022-12-11T01:50:25.745Z,-2.90
2022-12-11T01:53:37.978Z,-2.92
2022-12-11T01:56:39.717Z,-2.98
2022-12-11T01:59:41.355Z,-2.95
2022-12-11T02:02:42.830Z,-2.96
2022-12-11T02:05:44.237Z,-2.98
2022-12-11T02:08:45.611Z,-2.93
2022-12-11T02:12:03.816Z,-2.83
2022-12-11T02:15:17.468Z,-2.84
2022-12-11T02:18:27.938Z,-2.89
2022-12-11T02:21:32.842Z,-2.86
2022-12-11T02:24:41.458Z,-2.85
2022-12-11T02:27:46.381Z,-2.86
2022-12-11T02:30:49.130Z,-2.86
2022-12-11T02:34:03.993Z,-2.90
2022-12-11T02:37:06.254Z,-2.93
2022-12-11T02:40:07.923Z,-3.01
2022-12-11T02:43:10.266Z,-2.98
2022-12-11T02:46:11.651Z,-3.07
2022-12-11T02:49:13.578Z,-3.10
2022-12-11T02:52:14.958Z,-3.09
2022-12-11T02:55:16.456Z,-3.08
2022-12-11T02:58:24.389Z,-3.11
2022-12-11T03:01:26.144Z,-3.11
2022-12-11T03:04:27.547Z,-3.15
2022-12-11T03:07:29.674Z,-3.11
2022-12-11T03:10:31.101Z,-3.11
2022-12-11T03:13:32.449Z,-3.12
2022-12-11T03:16:37.429Z,-3.07
2022-12-11T03:19:40.245Z,-3.11
2022-12-11T03:22:49.065Z,-3.10
2022-12-11T03:25:54.601Z,-3.10
2022-12-11T03:28:57.142Z,-3.08
2022-12-11T03:31:59.593Z,-3.07
2022-12-11T03:35:04.029Z,-3.15
2022-12-11T03:38:07.144Z,-3.14
2022-12-11T03:41:08.563Z,-3.17
2022-12-11T03:44:09.978Z,-3.27
2022-12-11T03:47:11.569Z,-3.17
2022-12-11T03:50:13.235Z,-3.25
2022-12-11T03:53:14.613Z,-3.23
2022-12-11T03:56:17.881Z,-3.22
2022-12-11T03:59:19.257Z,-3.20
2022-12-11T04:02:20.611Z,-3.24
2022-12-11T04:05:22.002Z,-3.27
2022-12-11T04:08:23.436Z,-3.28
2022-12-11T04:11:37.078Z,-3.31
2022-12-11T04:14:57.266Z,-3.30
2022-12-11T04:18:17.241Z,-3.33
2022-12-11T04:21:39.725Z,-3.35
2022-12-11T04:24:41.555Z,-3.45
2022-12-11T04:27:49.092Z,-3.45
2022-12-11T04:30:50.544Z,-3.42
2022-12-11T04:33:51.931Z,-3.40
2022-12-11T04:36:53.310Z,-3.39
2022-12-11T04:39:54.672Z,-3.37
2022-12-11T04:42:56.075Z,-3.32
2022-12-11T04:46:01.324Z,-3.35
2022-12-11T04:49:02.858Z,-3.31
2022-12-11T04:52:04.268Z,-3.33
2022-12-11T04:55:06.038Z,-3.38
2022-12-11T04:58:07.388Z,-3.39
2022-12-11T05:01:13.129Z,-3.35
2022-12-11T05:04:14.557Z,-3.38
2022-12-11T05:07:15.916Z,-3.37
2022-12-11T05:10:17.306Z,-3.31
2022-12-11T05:13:18.714Z,-3.33
2022-12-11T05:16:20.111Z,-3.44
2022-12-11T05:19:21.484Z,-3.42
2022-12-11T05:22:22.830Z,-3.40
2022-12-11T05:25:24.195Z,-3.41
2022-12-11T05:28:26.313Z,-3.37
2022-12-11T05:31:27.761Z,-3.38
2022-12-11T05:34:29.333Z,-3.35
2022-12-11T05:37:30.710Z,-3.42
2022-12-11T05:40:32.073Z,-3.54
2022-12-11T05:43:34.108Z,-3.52
2022-12-11T05:46:35.724Z,-3.53
2022-12-11T05:49:37.290Z,-3.53
2022-12-11T05:52:38.673Z,-3.54
2022-12-11T05:55:40.046Z,-3.55
2022-12-11T05:58:41.535Z,-3.53
2022-12-11T06:01:43.046Z,-3.54
2022-12-11T06:04:44.550Z,-3.52
2022-12-11T06:07:45.997Z,-3.56
2022-12-11T06:10:47.796Z,-3.53
2022-12-11T06:13:49.249Z,-3.57
2022-12-11T06:16:50.661Z,-3.56
2022-12-11T06:19:52.138Z,-3.54
2022-12-11T06:22:53.506Z,-3.55
2022-12-11T06:25:54.958Z,-3.53
2022-12-11T06:28:56.424Z,-3.55
2022-12-11T06:31:57.919Z,-3.54
2022-12-11T06:34:59.302Z,-3.47
2022-12-11T06:38:00.663Z,-3.47
2022-12-11T06:41:02.730Z,-3.45
2022-12-11T06:44:04.095Z,-3.46
2022-12-11T06:47:05.477Z,-3.47
2022-12-11T06:50:06.956Z,-3.45
2022-12-11T06:53:09.421Z,-3.46
2022-12-11T06:56:14.274Z,-3.49
2022-12-11T06:59:15.662Z,-3.54
2022-12-11T07:02:20.593Z,-3.54
2022-12-11T07:05:22.048Z,-3.43
2022-12-11T07:08:23.474Z,-3.46
2022-12-11T07:11:25.005Z,-3.48
2022-12-11T07:14:26.389Z,-3.48
2022-12-11T07:17:28.329Z,-3.51
2022-12-11T07:20:29.736Z,-3.50
2022-12-11T07:23:31.107Z,-3.50
2022-12-11T07:26:32.598Z,-3.45
2022-12-11T07:29:33.970Z,-3.46
2022-12-11T07:32:35.400Z,-3.42
2022-12-11T07:35:36.859Z,-3.38
2022-12-11T07:38:38.317Z,-3.35
2022-12-11T07:41:39.714Z,-3.32
2022-12-11T07:44:41.126Z,-3.33
2022-12-11T07:47:42.879Z,-3.44
2022-12-11T07:50:44.555Z,-3.40
2022-12-11T07:53:46.675Z,-3.33
2022-12-11T07:56:53.270Z,-3.33
2022-12-11T07:59:55.517Z,-3.32
2022-12-11T08:02:56.914Z,-3.33
2022-12-11T08:05:58.309Z,-3.34
2022-12-11T08:08:59.910Z,-3.32
2022-12-11T08:12:01.390Z,-3.19
2022-12-11T08:15:02.837Z,-3.16
2022-12-11T08:18:04.219Z,-3.12
2022-12-11T08:21:09.452Z,-3.10
2022-12-11T08:24:10.924Z,-3.07
2022-12-11T08:27:12.328Z,-3.06
2022-12-11T08:30:13.793Z,-3.16
2022-12-11T08:33:15.137Z,-3.07
2022-12-11T08:36:17.370Z,-2.98
2022-12-11T08:39:18.921Z,-3.02
2022-12-11T08:42:20.441Z,-3.06
2022-12-11T08:45:21.801Z,-2.99
2022-12-11T08:48:23.175Z,-3.03
2022-12-11T08:51:26.118Z,-3.13
2022-12-11T08:54:27.518Z,-2.92
2022-12-11T08:57:28.901Z,-2.85
2022-12-11T09:00:30.322Z,-2.69
2022-12-11T09:03:31.722Z,-2.70
2022-12-11T09:06:33.065Z,-2.69
2022-12-11T09:09:34.502Z,-2.70
2022-12-11T09:12:35.896Z,-2.69
2022-12-11T09:15:40.553Z,-2.59
2022-12-11T09:18:41.954Z,-2.45
2022-12-11T09:21:43.415Z,-2.15
2022-12-11T09:24:46.225Z,-2.32
2022-12-11T09:27:47.655Z,-2.28
2022-12-11T09:30:49.241Z,-2.27
2022-12-11T09:33:51.986Z,-2.15
2022-12-11T09:36:53.333Z,-2.00
2022-12-11T09:39:54.686Z,-1.93
2022-12-11T09:42:58.317Z,-1.88
2022-12-11T09:45:59.790Z,-1.82
2022-12-11T09:49:01.725Z,-1.67
2022-12-11T09:52:07.729Z,-1.63
2022-12-11T09:55:16.749Z,-2.15
2022-12-11T09:58:37.097Z,-1.97
2022-12-11T10:01:41.597Z,-1.68
2022-12-11T10:04:47.168Z,-1.78
2022-12-11T10:07:52.402Z,-1.59
2022-12-11T10:10:57.859Z,-1.46
2022-12-11T10:13:59.203Z,-1.75
2022-12-11T10:17:18.531Z,-1.57
2022-12-11T10:20:28.653Z,-1.70
2022-12-11T10:23:53.377Z,-1.68
2022-12-11T10:26:55.606Z,-1.89
2022-12-11T10:30:01.409Z,-1.93
2022-12-11T10:33:07.423Z,-1.94
2022-12-11T10:36:09.197Z,-1.93
2022-12-11T10:39:14.490Z,-1.84
2022-12-11T10:42:16.565Z,-1.59
2022-12-11T10:45:17.946Z,-1.62
2022-12-11T10:48:19.323Z,-1.72
2022-12-11T10:51:32.894Z,-1.75
2022-12-11T10:54:35.992Z,-1.81
2022-12-11T10:57:37.773Z,-1.69
2022-12-11T11:00:39.807Z,-1.67
2022-12-11T11:03:44.009Z,-1.81
2022-12-11T11:06:45.380Z,-1.57
2022-12-11T11:09:47.052Z,-1.46
2022-12-11T11:12:48.874Z,-1.56
2022-12-11T11:15:50.937Z,-1.43
2022-12-11T11:18:54.081Z,-1.28
2022-12-11T11:21:56.565Z,-1.21
2022-12-11T11:24:58.329Z,-1.14
2022-12-11T11:27:59.608Z,-0.87
2022-12-11T11:31:02.590Z,-0.97
2022-12-11T11:34:08.037Z,-0.87
2022-12-11T11:37:22.252Z,-0.74
2022-12-11T11:40:30.878Z,-0.65
2022-12-11T11:43:40.399Z,-0.76
2022-12-11T11:46:43.263Z,-0.89
2022-12-11T11:49:47.193Z,-0.70
2022-12-11T11:52:50.642Z,-0.65
2022-12-11T11:56:07.377Z,-0.89
2022-12-11T11:59:35.011Z,-0.87
2022-12-11T12:02:36.358Z,-0.89
2022-12-11T12:05:52.136Z,-0.74
2022-12-11T12:08:53.547Z,-0.95
2022-12-11T12:12:13.744Z,-1.10
2022-12-11T12:15:28.320Z,-1.29
2022-12-11T12:18:41.743Z,-0.99
2022-12-11T12:21:44.849Z,-1.08
2022-12-11T12:24:49.984Z,-1.01
2022-12-11T12:28:06.793Z,-1.33
2022-12-11T12:31:08.229Z,-1.37
2022-12-11T12:34:28.316Z,-1.33
2022-12-11T12:37:39.986Z,-1.40
2022-12-11T12:41:03.423Z,-1.49
2022-12-11T12:44:08.233Z,-1.45
2022-12-11T12:47:10.978Z,-1.58
2022-12-11T12:50:14.040Z,-1.59
2022-12-11T12:53:19.944Z,-1.62
2022-12-11T12:56:21.444Z,-1.62
2022-12-11T12:59:23.724Z,-1.63
2022-12-11T13:02:25.641Z,-1.74
2022-12-11T13:05:27.867Z,-1.57
2022-12-11T13:08:32.312Z,-1.56
2022-12-11T13:11:34.417Z,-1.55
2022-12-11T13:14:35.859Z,-1.62
2022-12-11T13:17:38.091Z,-1.55
2022-12-11T13:20:46.069Z,-1.56
2022-12-11T13:23:47.702Z,-1.65
2022-12-11T13:26:49.367Z,-1.60
2022-12-11T13:29:50.831Z,-1.53
2022-12-11T13:33:01.685Z,-1.65
2022-12-11T13:36:26.351Z,-1.66
2022-12-11T13:39:29.351Z,-1.53
2022-12-11T13:43:03.562Z,-1.53
2022-12-11T13:46:05.520Z,-1.52
2022-12-11T13:49:07.494Z,-1.53
2022-12-11T13:52:15.915Z,-1.43
2022-12-11T13:55:17.665Z,-1.42
2022-12-11T13:58:19.503Z,-1.53
2022-12-11T14:01:21.773Z,-1.52
2022-12-11T14:04:23.272Z,-1.39
2022-12-11T14:07:29.018Z,-1.34
2022-12-11T14:10:31.288Z,-1.40
2022-12-11T14:13:33.941Z,-1.40
2022-12-11T14:16:35.490Z,-1.49
2022-12-11T14:19:37.433Z,-1.43
2022-12-11T14:22:39.579Z,-1.42
2022-12-11T14:25:41.308Z,-1.52
2022-12-11T14:28:43.224Z,-1.53
2022-12-11T14:31:45.461Z,-1.55
2022-12-11T14:34:47.455Z,-1.57
2022-12-11T14:37:48.993Z,-1.54
2022-12-11T14:40:51.827Z,-1.59
2022-12-11T14:43:54.405Z,-1.68
2022-12-11T14:47:00.638Z,-1.72
2022-12-11T14:50:02.012Z,-1.77
2022-12-11T14:53:04.239Z,-1.81
2022-12-11T14:56:06.236Z,-1.79
2022-12-11T14:59:09.206Z,-1.84
2022-12-11T15:02:24.617Z,-1.87
2022-12-11T15:05:26.387Z,-1.89
2022-12-11T15:08:27.912Z,-1.93
2022-12-11T15:11:30.636Z,-1.92
2022-12-11T15:14:33.618Z,-1.92
2022-12-11T15:17:37.400Z,-1.91
2022-12-11T15:20:38.785Z,-1.98
2022-12-11T15:23:47.427Z,-2.12
2022-12-11T15:26:49.264Z,-2.22
2022-12-11T15:29:50.786Z,-2.22
2022-12-11T15:33:10.617Z,-2.19
2022-12-11T15:36:24.741Z,-2.21
2022-12-11T15:39:26.299Z,-2.21
2022-12-11T15:42:34.868Z,-2.28
2022-12-11T15:45:36.471Z,-2.27
2022-12-11T15:48:38.018Z,-2.23
2022-12-11T15:51:42.869Z,-2.25
2022-12-11T15:54:45.115Z,-2.27
2022-12-11T15:57:51.076Z,-2.28
2022-12-11T16:00:53.467Z,-2.32
2022-12-11T16:03:55.491Z,-2.39
2022-12-11T16:06:58.879Z,-2.41
2022-12-11T16:10:00.434Z,-2.49
2022-12-11T16:13:02.849Z,-2.49
2022-12-11T16:16:05.942Z,-2.51
2022-12-11T16:19:07.505Z,-2.49
2022-12-11T16:22:09.133Z,-2.53
2022-12-11T16:25:10.950Z,-2.56
2022-12-11T16:28:16.779Z,-2.53
2022-12-11T16:31:18.252Z,-2.60
2022-12-11T16:34:19.760Z,-2.59
2022-12-11T16:37:21.117Z,-2.67
2022-12-11T16:40:22.621Z,-2.68
2022-12-11T16:43:23.965Z,-2.72
2022-12-11T16:46:25.393Z,-2.72
2022-12-11T16:49:26.780Z,-2.72
2022-12-11T16:52:28.225Z,-2.66
2022-12-11T16:55:29.658Z,-2.70
2022-12-11T16:58:31.048Z,-2.69
2022-12-11T17:01:32.601Z,-2.73
2022-12-11T17:04:34.173Z,-2.70
2022-12-11T17:07:35.645Z,-2.70
2022-12-11T17:10:40.775Z,-2.69
2022-12-11T17:13:42.388Z,-2.70
2022-12-11T17:16:43.859Z,-2.74
2022-12-11T17:19:45.354Z,-2.75
2022-12-11T17:22:46.796Z,-2.74
2022-12-11T17:25:48.456Z,-2.79
2022-12-11T17:28:49.882Z,-2.83
2022-12-11T17:31:51.984Z,-2.88
2022-12-11T17:34:53.618Z,-2.98
2022-12-11T17:37:55.064Z,-3.05
2022-12-11T17:40:56.642Z,-3.09
2022-12-11T17:43:58.177Z,-3.09
2022-12-11T17:46:59.651Z,-3.11
2022-12-11T17:50:01.052Z,-3.21
2022-12-11T17:53:02.423Z,-3.28
2022-12-11T17:56:04.371Z,-3.33
2022-12-11T17:59:05.920Z,-3.39
2022-12-11T18:02:07.483Z,-3.44
2022-12-11T18:05:09.277Z,-3.50
2022-12-11T18:08:30.170Z,-3.57
2022-12-11T18:11:31.839Z,-3.58
2022-12-11T18:14:33.469Z,-3.60
2022-12-11T18:17:35.404Z,-3.64
2022-12-11T18:20:37.418Z,-3.66
2022-12-11T18:23:38.823Z,-3.68
2022-12-11T18:26:42.854Z,-3.70
2022-12-11T18:29:44.259Z,-3.73
2022-12-11T18:32:45.771Z,-3.80
2022-12-11T18:35:51.716Z,-3.84
2022-12-11T18:38:53.106Z,-3.92
2022-12-11T18:42:24.299Z,-4.04
2022-12-11T18:45:16.021Z,-4.11
2022-12-11T18:48:17.383Z,-4.15
2022-12-11T18:51:19.697Z,-4.18
2022-12-11T18:54:21.140Z,-4.18
2022-12-11T18:57:22.496Z,-4.20
2022-12-11T19:00:24.009Z,-4.24
2022-12-11T19:03:25.392Z,-4.22
2022-12-11T19:06:28.637Z,-4.22
2022-12-11T19:09:35.314Z,-4.28
2022-12-11T19:12:39.426Z,-4.38
2022-12-11T19:19:12.205Z,-4.51
2022-12-11T19:22:14.984Z,-4.56
2022-12-11T19:25:16.484Z,-4.61
2022-12-11T19:28:17.924Z,-4.65
2022-12-11T19:31:20.572Z,-4.74
2022-12-11T19:34:25.728Z,-4.71
2022-12-11T19:37:27.243Z,-4.68
2022-12-11T19:40:28.799Z,-4.69
2022-12-11T19:43:30.825Z,-4.75
2022-12-11T19:46:32.647Z,-4.80
2022-12-11T19:49:34.416Z,-4.84
2022-12-11T19:52:37.503Z,-4.87
2022-12-11T19:55:54.598Z,-4.93
2022-12-11T19:59:00.913Z,-5.04
2022-12-11T20:02:05.016Z,-5.00
2022-12-11T20:05:13.768Z,-5.06
2022-12-11T20:08:45.900Z,-5.14
2022-12-11T20:15:09.970Z,-5.31
2022-12-11T20:18:16.900Z,-5.35
2022-12-11T20:21:20.603Z,-5.39
2022-12-11T20:24:24.816Z,-5.43
2022-12-11T20:27:28.217Z,-5.40
2022-12-11T20:30:29.920Z,-5.41
2022-12-11T20:33:33.357Z,-5.45
2022-12-11T20:36:35.310Z,-5.53
2022-12-11T20:39:36.962Z,-5.51
2022-12-11T20:42:40.679Z,-5.47
2022-12-11T20:45:47.265Z,-5.47
2022-12-11T20:48:48.941Z,-5.43
2022-12-11T20:51:50.473Z,-5.35
2022-12-11T20:54:53.240Z,-5.39
2022-12-11T20:57:54.912Z,-5.30
2022-12-11T21:00:56.752Z,-5.41
2022-12-11T21:03:58.632Z,-5.36
2022-12-11T21:07:00.913Z,-5.40
2022-12-11T21:10:02.634Z,-5.37
2022-12-11T21:13:04.141Z,-5.37
2022-12-11T21:16:06.518Z,-5.39
2022-12-11T21:19:11.301Z,-5.38
2022-12-11T21:22:16.994Z,-5.33
2022-12-11T21:25:18.821Z,-5.23
2022-12-11T21:28:20.500Z,-5.24
2022-12-11T21:31:22.272Z,-5.23
2022-12-11T21:34:25.693Z,-5.20
2022-12-11T21:37:27.613Z,-5.15
2022-12-11T21:40:29.427Z,-5.13
2022-12-11T21:43:31.066Z,-5.11
2022-12-11T21:46:32.920Z,-5.05
2022-12-11T21:49:34.555Z,-5.04
2022-12-11T21:52:37.488Z,-5.05
2022-12-11T21:55:40.000Z,-4.99
2022-12-11T21:58:42.327Z,-4.98
2022-12-11T22:01:46.088Z,-5.13
2022-12-11T22:04:47.862Z,-5.13
2022-12-11T22:07:49.610Z,-5.10
2022-12-11T22:10:51.218Z,-5.11
2022-12-11T22:13:53.100Z,-5.12
2022-12-11T22:16:54.786Z,-5.05
2022-12-11T22:19:59.595Z,-4.98
2022-12-11T22:23:04.717Z,-4.91
2022-12-11T22:26:07.959Z,-4.93
2022-12-11T22:29:09.642Z,-4.95
2022-12-11T22:32:13.610Z,-4.93
2022-12-11T22:35:22.895Z,-4.98
2022-12-11T22:38:28.879Z,-4.92
2022-12-11T22:41:32.933Z,-4.97
2022-12-11T22:44:34.480Z,-5.05
2022-12-11T22:47:40.181Z,-5.16
2022-12-11T22:50:41.867Z,-5.18
2022-12-11T22:53:43.448Z,-5.22
2022-12-11T22:56:45.243Z,-5.24
2022-12-11T22:59:46.830Z,-5.24
2022-12-11T23:02:48.712Z,-5.26
2022-12-11T23:05:54.012Z,-5.28
2022-12-11T23:09:01.672Z,-5.35
2022-12-11T23:12:07.518Z,-5.38
2022-12-11T23:15:13.533Z,-5.39
2022-12-11T23:18:18.010Z,-5.40
2022-12-11T23:21:22.269Z,-5.40
2022-12-11T23:24:24.004Z,-5.45
2022-12-11T23:27:25.772Z,-5.57
2022-12-11T23:30:29.440Z,-5.61
2022-12-11T23:33:30.991Z,-5.64
2022-12-11T23:36:36.036Z,-5.67
2022-12-11T23:39:37.865Z,-5.85
2022-12-11T23:42:39.425Z,-5.94
2022-12-11T23:45:43.268Z,-6.02
2022-12-11T23:48:44.851Z,-6.12
2022-12-11T23:51:46.480Z,-6.27
2022-12-11T23:54:55.514Z,-6.37
2022-12-11T23:57:57.196Z,-6.46
